• Join FlightAware (Why Join?)
  • Login
  • US Flag 
03:58AM EST


 

Airport Tracker/Info


-or-


 

Live Flight TrackerFlight Track Log ✈ N9543F ✈ 02-Aug-2013 ✈ KMGW - KMTN

Flight Track Log - Related Links

Times and Time Zones

All times are in EDT time to prevent confusion due to time zone crossing. See the N9543F flight status page for this flight to view local times or setup timezone preferences in your user account.

Time Position Orientation Groundspeed Altitude Reporting Facility
EDT Latitude Longitude Course Direction KTS MPH feet Rate Location/Type
07:23PM 39.6372 -79.8842 99° East 134 154 2,700  Level Washington Center
07:24PM 39.6386 -79.8492 87° East 112 129 3,300 540 Climbing Washington Center
07:25PM 39.6378 -79.8117 92° East 101 116 3,800 540 Climbing Washington Center
07:26PM 39.6369 -79.7764 92° East 101 116 4,400 540 Climbing Washington Center
07:27PM 39.6045 -79.6615 97° East  Level FlightAware Approximate
07:27PM 39.6342 -79.7358 95° East 101 116 4,900  Level Washington Center
07:28PM 39.5993 -79.6104 99° East  Level FlightAware Approximate
07:28PM 39.6292 -79.6978 100° East 101 116 5,400  Level Washington Center
07:29PM 39.6222 -79.6569 102° East 127 146 5,800 480 Climbing Washington Center
07:30PM 39.6153 -79.6161 102° East 127 146 6,400 480 Climbing Washington Center
07:31PM 39.6106 -79.5728 98° East 121 139 6,800 300 Climbing Washington Center
07:32PM 39.6036 -79.5294 102° East 121 139 7,000 120 Climbing Washington Center
07:33PM 39.5967 -79.4806 100° East 128 147 7,100  Climbing Washington Center
07:34PM 39.5922 -79.4292 96° East 133 153 7,000 -60 Descending Washington Center
07:35PM 39.5856 -79.3747 99° East 145 167 7,000  Level Washington Center
07:36PM 39.5747 -79.3231 105° East 145 167 7,100  Climbing Washington Center
07:37PM 39.5597 -79.2686 110° East 156 180 7,100  Level Washington Center
07:38PM 39.5553 -79.2117 96° East 156 180 7,100  Level Washington Center
07:39PM 39.5483 -79.1603 100° East 156 180 7,100 -60 Level Washington Center
07:40PM 39.5417 -79.1061 99° East 156 180 7,000 -60 Descending Washington Center
07:41PM 39.5286 -79.0517 107° East 156 180 7,000  Level Washington Center
07:42PM 39.5217 -79.0003 100° East 156 180 7,000  Level Washington Center
07:43PM 39.5211 -78.9436 91° East 146 168 7,000  Level Washington Center
07:44PM 39.5144 -78.8922 100° East 146 168 7,100  Climbing Washington Center
07:45PM 39.5053 -78.8381 102° East 146 168 7,100  Level Washington Center
07:46PM 39.4942 -78.7864 106° East 146 168 7,100  Level Washington Center
07:47PM 39.4875 -78.7297 99° East 146 168 7,100 -60 Level Washington Center
07:48PM 39.4783 -78.6756 102° East 146 168 7,000  Descending Washington Center
07:49PM 39.4692 -78.6239 103° East 146 168 7,100  Climbing Washington Center
07:50PM 39.4664 -78.5728 94° East 146 168 7,000  Descending Washington Center
07:51PM 39.4614 -78.5217 97° East 146 168 7,100  Climbing Washington Center
07:52PM 39.4564 -78.4650 97° East 146 168 7,000  Descending Washington Center
07:53PM 39.4494 -78.4136 100° East 146 168 7,100 -60 Climbing Washington Center
07:54PM 39.4486 -78.3597 91° East 146 168 6,900  Descending Washington Center
07:55PM 39.4436 -78.3058 97° East 146 168 7,100  Climbing Washington Center
07:56PM 39.4383 -78.2544 98° East 146 168 7,000 -60 Descending Washington Center
07:57PM 39.4394 -78.2008 88° East 146 168 7,000  Level Washington Center
07:58PM 39.4408 -78.1472 88° East 141 162 7,100  Climbing Washington Center
08:00PM 39.4500 -78.0167 85° East 151 174 7,000 -60 Descending Potomac TRACON
08:01PM 39.4500 -77.9667 90° East 145 167 7,000  Level Potomac TRACON
08:02PM 39.4500 -77.9167 90° East 147 169 7,100  Climbing Potomac TRACON
08:03PM 39.4500 -77.8500 90° East 156 180 7,000  Descending Potomac TRACON
08:04PM 39.4500 -77.8000 90° East 154 177 7,100  Climbing Potomac TRACON
08:05PM 39.4500 -77.7500 90° East 151 174 7,000 -60 Descending Potomac TRACON
08:06PM 39.4500 -77.7000 90° East 149 171 7,000  Level Potomac TRACON
08:07PM 39.4500 -77.6500 90° East 150 173 7,100 -240 Climbing Potomac TRACON
08:08PM 39.4500 -77.5833 90° East 160 184 6,600 -360 Descending Potomac TRACON
08:09PM 39.4500 -77.5333 90° East 162 186 6,400 -540 Descending Potomac TRACON
08:10PM 39.4500 -77.4833 90° East 170 196 5,600 -660 Descending Potomac TRACON
08:11PM 39.4500 -77.4167 90° East 164 189 5,100 -240 Descending Potomac TRACON
08:12PM 39.4500 -77.3500 90° East 155 178 5,100 -120 Level Potomac TRACON
08:13PM 39.4667 -77.3000 67° East 151 174 4,900 -60 Descending Potomac TRACON
08:14PM 39.4667 -77.2500 90° East 149 171 5,000  Climbing Potomac TRACON
08:15PM 39.4667 -77.1833 90° East 152 175 5,000  Level Potomac TRACON
08:16PM 39.4833 -77.1500 57° Northeast 151 174 5,000 -60 Level Potomac TRACON
08:17PM 39.4833 -77.0833 90° East 156 180 4,900 -300 Descending Potomac TRACON
08:18PM 39.4833 -77.0333 90° East 164 189 4,400 -420 Descending Potomac TRACON
08:19PM 39.5000 -76.9667 72° East 162 186 4,100 -240 Descending Potomac TRACON
08:20PM 39.5000 -76.9167 90° East 155 178 4,000 -60 Descending Potomac TRACON
08:21PM 39.4833 -76.8667 113° Southeast 146 168 4,000  Level Potomac TRACON
08:22PM 39.4667 -76.8167 113° Southeast 143 165 4,000  Level Potomac TRACON
08:23PM 39.4500 -76.7667 113° Southeast 144 166 4,000  Level Potomac TRACON
08:24PM 39.4333 -76.7333 123° Southeast 142 163 4,000 -120 Level Potomac TRACON
08:25PM 39.4167 -76.6833 113° Southeast 147 169 3,800 -300 Descending Potomac TRACON
08:26PM 39.4000 -76.6333 113° Southeast 154 177 3,400 -420 Descending Potomac TRACON
08:27PM 39.3833 -76.5833 113° Southeast 145 167 3,000 -240 Descending Potomac TRACON
08:28PM 39.3667 -76.5500 123° Southeast 133 153 3,000 -240 Level Potomac TRACON
08:29PM 39.3333 -76.5000 131° Southeast 140 161 2,600 -600 Descending Potomac TRACON
08:30PM 39.3333 -76.4500 90° East 137 158 1,800 -720 Descending Potomac TRACON
08:31PM 39.3000 -76.4167 142° Southeast 121 139 1,200 -540 Descending Potomac TRACON
08:32PM 39.2833 -76.4000 142° Southeast 92 106 800 -420 Descending Potomac TRACON
08:33PM 39.3000 -76.3833 38° Northeast 93 107 400 -420 Descending Potomac TRACON
08:35PM 39.3167 -76.4000 North  Level FlightAware Approximate
08:42PM 39.3257 -76.4138 North  Level Estimated
08:43PM 39.3257 -76.4138 North  Level Estimated
08:44PM 39.3257 -76.4138 North  Level Estimated
08:45PM 39.3257 -76.4138 North  Level Estimated
08:46PM 39.3257 -76.4138 North  Level Estimated
08:47PM 39.3257 -76.4138 North  Level Estimated
08:48PM 39.3257 -76.4138 North  Level Estimated
08:49PM 39.3257 -76.4138 North  Level Estimated
08:50PM 39.3257 -76.4138 North  Level Estimated